KHZE

Details ICAO KHZE
Name MERCER CO RGNL
Region United States
Timezone America/North_Dakota/Beulah (UTC-6.0)
Plans Departing 2
Arriving 2
Stats Elevation 1,813 ft / 553 m (AMSL)
Location 47.289861° -101.580945°
Runways 1
Magnetic Variation 6.569° E
Sunrise 2017-12-13 14:26:37 UTC / 2017-12-13 08:26:37 Local
Sunset 2017-12-13 22:57:32 UTC / 2017-12-13 16:57:32 Local
Advertisement - Login to hide

Runways

ID Width Length Bearing (true) Bearing (mag) Surface Threshold Offset Overrun Length
14 75 ft / 23 m 4,998 ft / 1,523 m 153.17° 146.60° Asphalt 0 ft / 0 m 0 ft / 0 m
32 75 ft / 23 m 4,998 ft / 1,523 m 333.18° 326.61° Asphalt 0 ft / 0 m 0 ft / 0 m

Map

Weather


0- 5 10 15 20 25 30 35+ Temperature / ° C

Clouds and Precipitation
Forecast for 2017-12-13 12:00 UTC. Updated 13 minutes ago

Ground ~20,000 ft ~40,000 ft Winds

METAR

KHZE 130735Z AUTO 31022G36KT 10SM BKN060 OVC070 06/M01 A2972 RMK AO2

TAF

Not found

Frequencies

Unicom 122.80 MHz CTAF
Warning: Do not use this data for real-world aviation or navigation. No guarantee of current accuracy is given.